createdAt,value
2022-07-28T00:03:13.313Z,1.60
2022-07-28T00:08:15.173Z,2.10
2022-07-28T00:13:17.151Z,1.30
2022-07-28T00:18:19.135Z,1.90
2022-07-28T00:23:21.014Z,1.20
2022-07-28T00:28:22.787Z,1.40
2022-07-28T00:33:24.565Z,2.00
2022-07-28T00:38:26.548Z,1.80
2022-07-28T00:43:28.203Z,1.90
2022-07-28T00:48:30.102Z,1.90
2022-07-28T00:53:31.879Z,1.90
2022-07-28T00:58:34.475Z,3.00
2022-07-28T01:03:37.896Z,2.20
2022-07-28T01:08:39.776Z,1.60
2022-07-28T01:13:55.681Z,1.50
2022-07-28T01:19:03.500Z,1.60
2022-07-28T01:24:05.149Z,1.70
2022-07-28T01:29:13.097Z,1.70
2022-07-28T01:34:20.299Z,3.70
2022-07-28T01:39:23.923Z,3.50
2022-07-28T01:44:26.743Z,4.40
2022-07-28T01:49:30.035Z,5.80
2022-07-28T01:54:32.433Z,5.80
2022-07-28T01:59:35.332Z,3.50
2022-07-28T02:04:38.855Z,3.90
2022-07-28T02:09:48.127Z,3.90
2022-07-28T02:14:50.795Z,7.20
2022-07-28T02:19:52.877Z,6.80
2022-07-28T02:24:56.014Z,4.50
2022-07-28T02:30:02.890Z,4.00
2022-07-28T02:35:20.030Z,4.00
2022-07-28T02:40:25.108Z,2.90
2022-07-28T02:45:28.811Z,3.20
2022-07-28T02:50:30.788Z,3.10
2022-07-28T02:55:33.795Z,4.50
2022-07-28T03:00:36.086Z,5.10
2022-07-28T03:05:40.092Z,4.80
2022-07-28T03:10:42.161Z,4.90
2022-07-28T03:15:43.973Z,4.40
2022-07-28T03:20:46.266Z,4.00
2022-07-28T03:25:50.500Z,3.10
2022-07-28T03:30:58.386Z,3.50
2022-07-28T03:36:02.793Z,4.80
2022-07-28T03:41:06.484Z,3.60
2022-07-28T03:46:13.195Z,3.30
2022-07-28T03:51:15.464Z,3.00
2022-07-28T03:56:17.364Z,3.40
2022-07-28T04:01:19.240Z,4.80
2022-07-28T04:06:21.309Z,11.80
2022-07-28T04:11:23.493Z,7.10
2022-07-28T04:16:25.323Z,4.30
2022-07-28T04:21:31.688Z,5.50
2022-07-28T04:26:33.432Z,4.70
2022-07-28T04:31:35.540Z,5.00
2022-07-28T04:36:42.413Z,3.80
2022-07-28T04:41:46.354Z,3.00
2022-07-28T04:46:48.834Z,2.60
2022-07-28T04:51:52.777Z,2.70
2022-07-28T04:56:59.234Z,2.50
2022-07-28T05:02:04.710Z,2.30
2022-07-28T05:07:07.969Z,3.50
2022-07-28T05:12:13.598Z,2.30
2022-07-28T05:17:15.577Z,2.30
2022-07-28T05:22:17.714Z,2.90
2022-07-28T05:27:19.541Z,2.60
2022-07-28T05:32:21.240Z,3.00
2022-07-28T05:37:22.995Z,2.30
2022-07-28T05:42:26.641Z,2.70
2022-07-28T05:47:28.490Z,2.60
2022-07-28T05:52:30.469Z,2.30
2022-07-28T05:57:32.350Z,2.30
2022-07-28T06:02:34.435Z,2.30
2022-07-28T06:07:43.969Z,1.70
2022-07-28T06:12:47.217Z,2.40
2022-07-28T06:17:52.793Z,2.20
2022-07-28T06:22:55.493Z,2.00
2022-07-28T06:27:58.658Z,1.90
2022-07-28T06:33:00.562Z,1.60
2022-07-28T06:38:02.234Z,1.50
2022-07-28T06:43:04.322Z,2.10
2022-07-28T06:48:08.114Z,1.50
2022-07-28T06:53:10.026Z,1.40
2022-07-28T06:58:11.903Z,1.40
2022-07-28T07:03:13.666Z,1.50
2022-07-28T07:08:15.327Z,1.40
2022-07-28T07:13:17.240Z,1.40
2022-07-28T07:18:18.991Z,1.90
2022-07-28T07:23:21.001Z,1.50
2022-07-28T07:28:22.700Z,2.00
2022-07-28T07:33:24.377Z,1.10
2022-07-28T07:38:29.109Z,1.30
2022-07-28T07:43:31.301Z,1.70
2022-07-28T07:48:33.117Z,1.70
2022-07-28T07:53:35.077Z,1.30
2022-07-28T07:58:36.924Z,1.60
2022-07-28T08:03:38.736Z,1.30
2022-07-28T08:08:45.058Z,1.00
2022-07-28T08:13:48.290Z,1.20
2022-07-28T08:18:49.957Z,1.20
2022-07-28T08:23:51.934Z,1.00
2022-07-28T08:28:53.713Z,2.50
2022-07-28T08:33:55.711Z,1.30
2022-07-28T08:38:57.587Z,1.00
2022-07-28T08:43:59.996Z,1.40
2022-07-28T08:49:02.782Z,1.10
2022-07-28T08:54:06.037Z,1.60
2022-07-28T08:59:07.916Z,1.40
2022-07-28T09:04:10.280Z,1.50
2022-07-28T09:09:12.149Z,1.30
2022-07-28T09:14:14.354Z,1.10
2022-07-28T09:19:16.716Z,1.10
2022-07-28T09:24:32.528Z,1.10
2022-07-28T09:29:38.483Z,1.40
2022-07-28T09:34:47.960Z,1.10
2022-07-28T09:39:50.761Z,0.90
2022-07-28T09:45:25.310Z,1.10
2022-07-28T09:50:30.283Z,1.10
2022-07-28T09:55:35.538Z,1.20
2022-07-28T10:00:37.245Z,1.00
2022-07-28T10:05:39.887Z,1.40
2022-07-28T10:10:41.654Z,1.30
2022-07-28T10:16:01.919Z,1.40
2022-07-28T10:21:07.976Z,1.10
2022-07-28T10:26:13.055Z,1.40
2022-07-28T10:31:17.797Z,2.20
2022-07-28T10:36:22.962Z,1.40
2022-07-28T10:41:26.532Z,1.40
2022-07-28T10:46:32.225Z,1.20
2022-07-28T10:51:34.509Z,1.60
2022-07-28T10:56:52.862Z,2.30
2022-07-28T11:01:59.311Z,2.20
2022-07-28T11:07:11.152Z,1.50
2022-07-28T11:12:15.488Z,1.20
2022-07-28T11:17:24.028Z,1.70
2022-07-28T11:22:34.995Z,1.70
2022-07-28T11:27:39.813Z,1.60
2022-07-28T11:32:50.501Z,1.70
2022-07-28T11:38:01.462Z,1.20
2022-07-28T11:43:22.552Z,1.60
2022-07-28T11:48:38.612Z,1.90
2022-07-28T11:53:41.904Z,1.50
2022-07-28T11:58:43.715Z,1.70
2022-07-28T12:03:49.563Z,2.10
2022-07-28T12:09:02.422Z,2.00
2022-07-28T12:14:11.554Z,1.60
2022-07-28T12:19:17.930Z,1.40
2022-07-28T12:24:30.969Z,1.80
2022-07-28T12:29:36.071Z,1.80
2022-07-28T12:34:40.191Z,2.10
2022-07-28T12:39:44.723Z,1.60
2022-07-28T12:44:51.598Z,1.60
2022-07-28T12:50:14.261Z,2.00
2022-07-28T12:55:23.208Z,2.10
2022-07-28T13:00:26.733Z,2.30
2022-07-28T13:05:54.728Z,1.90
2022-07-28T13:10:59.020Z,2.10
2022-07-28T13:16:10.992Z,1.80
2022-07-28T13:21:13.358Z,2.10
2022-07-28T13:26:15.138Z,1.90
2022-07-28T13:31:17.007Z,1.70
2022-07-28T13:36:19.159Z,2.00
2022-07-28T13:41:20.899Z,1.80
2022-07-28T13:46:22.793Z,1.90
2022-07-28T13:51:24.744Z,1.80
2022-07-28T13:56:38.759Z,1.70
2022-07-28T14:01:42.309Z,2.00
2022-07-28T14:06:47.996Z,1.80
2022-07-28T14:11:53.625Z,1.80
2022-07-28T14:16:56.272Z,1.90
2022-07-28T14:21:58.719Z,1.60
2022-07-28T14:27:00.532Z,1.90
2022-07-28T14:32:02.307Z,1.50
2022-07-28T14:37:06.652Z,2.30
2022-07-28T14:42:11.084Z,2.00
2022-07-28T14:47:12.829Z,1.70
2022-07-28T14:52:14.849Z,1.70
2022-07-28T14:57:16.952Z,1.70
2022-07-28T15:02:19.130Z,2.20
2022-07-28T15:07:31.774Z,1.90
2022-07-28T15:12:33.731Z,2.30
2022-07-28T15:17:36.017Z,2.10
2022-07-28T15:22:37.897Z,1.40
2022-07-28T15:27:45.310Z,2.00
2022-07-28T15:32:55.948Z,1.80
2022-07-28T15:37:59.514Z,1.60
2022-07-28T15:43:01.600Z,2.20
2022-07-28T15:48:03.766Z,1.90
2022-07-28T15:53:05.482Z,1.90
2022-07-28T15:58:07.545Z,1.90
2022-07-28T16:03:09.498Z,1.50
2022-07-28T16:08:11.403Z,2.20
2022-07-28T16:13:13.287Z,2.30
2022-07-28T16:18:15.163Z,2.70
2022-07-28T16:23:17.040Z,2.70
2022-07-28T16:28:18.921Z,2.00
2022-07-28T16:33:20.699Z,2.20
2022-07-28T16:38:22.278Z,2.20
2022-07-28T16:43:23.946Z,2.10
2022-07-28T16:48:25.728Z,2.10
2022-07-28T16:53:27.432Z,1.90
2022-07-28T16:58:37.628Z,1.90
2022-07-28T17:03:39.856Z,2.60
2022-07-28T17:08:41.535Z,2.10
2022-07-28T17:13:45.404Z,2.30
2022-07-28T17:18:47.429Z,1.60
2022-07-28T17:23:49.223Z,2.10
2022-07-28T17:28:50.999Z,2.50
2022-07-28T17:33:52.785Z,2.00
2022-07-28T17:38:54.657Z,2.50
2022-07-28T17:43:56.430Z,2.20
2022-07-28T17:48:58.958Z,2.00
2022-07-28T17:54:00.814Z,2.00
2022-07-28T17:59:03.091Z,2.40
2022-07-28T18:04:05.228Z,2.70
2022-07-28T18:09:10.754Z,3.10
2022-07-28T18:14:17.881Z,2.80
2022-07-28T18:19:27.236Z,3.20
2022-07-28T18:24:41.976Z,3.00
2022-07-28T18:33:04.350Z,2.90
2022-07-28T18:38:06.957Z,3.20
2022-07-28T18:43:12.918Z,2.80
2022-07-28T18:48:15.131Z,2.40
2022-07-28T18:53:21.399Z,2.40
2022-07-28T18:58:23.203Z,3.40
2022-07-28T19:03:25.052Z,2.70
2022-07-28T19:08:27.035Z,3.30
2022-07-28T19:13:28.811Z,3.60
2022-07-28T19:18:30.589Z,3.60
2022-07-28T19:23:32.573Z,3.60
2022-07-28T19:28:34.388Z,2.80
2022-07-28T19:33:36.650Z,2.90
2022-07-28T19:38:38.662Z,3.30
2022-07-28T19:43:40.706Z,2.50
2022-07-28T19:48:43.996Z,2.20
2022-07-28T19:53:45.999Z,2.70
2022-07-28T19:58:50.238Z,2.40
2022-07-28T20:04:00.906Z,2.10
2022-07-28T20:09:05.053Z,2.70
2022-07-28T20:14:06.752Z,3.40
2022-07-28T20:19:09.586Z,2.70
2022-07-28T20:24:11.774Z,3.10
2022-07-28T20:29:13.803Z,2.90
2022-07-28T20:34:15.913Z,2.90
2022-07-28T20:39:43.443Z,2.90
2022-07-28T20:44:39.620Z,3.00
2022-07-28T20:49:43.746Z,3.00
2022-07-28T20:54:48.337Z,2.70
2022-07-28T20:59:52.523Z,2.60
2022-07-28T21:04:54.226Z,3.30
2022-07-28T21:09:56.584Z,3.70
2022-07-28T21:14:58.474Z,3.70
2022-07-28T21:20:00.359Z,3.40
2022-07-28T21:25:02.121Z,3.40
2022-07-28T21:30:04.217Z,3.60
2022-07-28T21:35:09.733Z,3.20
2022-07-28T21:40:16.264Z,3.80
2022-07-28T21:45:20.496Z,3.90
2022-07-28T21:50:23.093Z,3.90
2022-07-28T21:55:24.874Z,4.80
2022-07-28T22:00:26.963Z,3.90
2022-07-28T22:05:29.682Z,4.50
2022-07-28T22:10:31.551Z,4.50
2022-07-28T22:15:33.338Z,4.30
2022-07-28T22:20:35.435Z,4.50
2022-07-28T22:25:37.818Z,4.50
2022-07-28T22:30:39.671Z,4.70
2022-07-28T22:35:41.525Z,5.10
2022-07-28T22:40:43.535Z,4.00
2022-07-28T22:45:50.344Z,4.10
2022-07-28T22:50:53.332Z,3.80
2022-07-28T23:01:14.793Z,4.30
2022-07-28T23:06:17.316Z,4.50
2022-07-28T23:11:19.296Z,4.80
2022-07-28T23:16:21.240Z,4.50
2022-07-28T23:21:23.366Z,5.20
2022-07-28T23:26:25.447Z,3.90
2022-07-28T23:31:27.480Z,4.80
2022-07-28T23:36:30.128Z,4.70
2022-07-28T23:41:32.213Z,4.60
2022-07-28T23:46:34.362Z,5.00
2022-07-28T23:51:46.958Z,4.90
2022-07-28T23:56:56.083Z,5.00
